Тейково-14

СКИДКИ НА СМАРТФОНЫ!

Карта отелей и гостиниц, располагающихся рядом с аэропортом Тейково-14 :

Тейково-14 Ивановская область 56° 53' 51.7812" N, 40° 48' 42.7392" E
Код аэродрома ИКАО
HH32
Код аэродрома RU
ХХ32
Координаты
N56.89772° E040.81187°
Превышение над уровнем моря
129
Основная полоса
Курс магнитный
Длина основной ВПП
Ширина основной ВПП
Покрытие основной ВПП
Освещение ВПП
Тип: 
Вертодром
Класс аэродрома: 
Принадлежность: 
МО
Статус: 
Недействующий
Сайт: 
E-mail аэродрома: 
Страна: 
Россия
Регион: 
Ивановская область
Город: 
Дополнительная информация: 
Оператор: 54-я Гв. РД РВСН.

Скидки на навигаторы!

Найти трансфер

С помощью этой формы Вы можете найти трансфер из аэропорта Тейково-14 в город, аэропорт или вокзал:

Погода в аэропортах:

Авиационная погода в Липецке

Регион: 
Погода METAR: 
UUOL 091530Z 31003MPS 260V020 9000 -TSRA SCT///CB 24/15 Q1019 R33/290150 TEMPO VRB15MPS 1000 TSRAGR SQ BKN015CB
Время наблюдения
2022-08-09T15:30:00Z
Температура C
24.0
Точка росы
15.0
Направление ветра
310
Скорость ветра (узлы)
6
Метео видимость
5.59
Облачность
Нижняя граница облачности (футы)
Явления погоды
-TSRA
Условия полета
Аэропорт подробнее: 
TSRA - гроза с дождём;

Авиационная погода в Берлевоге

Регион: 
Погода METAR: 
ENBV 091520Z AUTO 27011KT 9999 -RA SCT034 BKN044 OVC054 13/10 Q1016
Время наблюдения
2022-08-09T15:20:00Z
Температура C
13.0
Точка росы
10.0
Направление ветра
270
Скорость ветра (узлы)
11
Метео видимость
6.21
Облачность
SCT
BKN
OVC
Нижняя граница облачности (футы)
3400
4400
5400
Явления погоды
-RA
Условия полета
VFR
SCT – разбросанная отдельная облачность; BKN – значительная (рассеянная, разорванная) облачность; OVC – сплошная облачность;
-RA - слабый дождь;

Авиационная погода в Череповце

Регион: 
Погода METAR: 
ULWC 091530Z 04003MPS 9999 TS SCT026CB 19/12 Q1023 R21/010063 NOSIG RMK QFE757/1010
Время наблюдения
2022-08-09T15:30:00Z
Температура C
19.0
Точка росы
12.0
Направление ветра
40
Скорость ветра (узлы)
6
Метео видимость
6.21
Облачность
SCT
Нижняя граница облачности (футы)
2600
Явления погоды
TS
Условия полета
VFR
Аэропорт подробнее: 
SCT – разбросанная отдельная облачность;

Авиационная погода в Сургуте

Регион: 
Погода METAR: 
USRR 091430Z 01004MPS 2300 HZ BKN022 24/19 Q1016 R25/CLRD60 TEMPO 1200 HZ RMK OBST OBSC QFE756
Время наблюдения
2022-08-09T14:30:00Z
Температура C
24.0
Точка росы
19.0
Направление ветра
10
Скорость ветра (узлы)
8
Метео видимость
1.43
Облачность
BKN
Нижняя граница облачности (футы)
2200
Явления погоды
HZ
Условия полета
IFR
Аэропорт подробнее: 
BKN – значительная (рассеянная, разорванная) облачность;
HZ – мгла (видимость менее 10 км);